Time;durP1;ratioP1;P1;durP2;ratioP2;P2;SDS_P1;SDS_P2;PMS_P1;PMS_P2;Temp;Humidity;BMP_temperature;BMP_pressure;BME280_temperature;BME280_humidity;BME280_pressure;Samples;Min_cycle;Max_cycle;Signal;HPM_P1;HPM_P2
2022/10/17 00:01:11;;;;;;;4.25;1.50;;;13.90;99.90;;;;;;5105519;28;20051;-43
2022/10/17 00:03:38;;;;;;;4.70;1.80;;;13.90;99.90;;;;;;5100235;28;20123;-42
2022/10/17 00:06:10;;;;;;;5.00;1.65;;;13.90;99.90;;;;;;5107756;28;20039;-40
2022/10/17 00:08:37;;;;;;;5.47;1.80;;;13.90;99.90;;;;;;5098010;28;20192;-42
2022/10/17 00:11:07;;;;;;;4.45;1.50;;;13.90;99.90;;;;;;5101509;28;20035;-41
2022/10/17 00:13:33;;;;;;;5.85;2.42;;;14.00;99.90;;;;;;5110057;28;20035;-40
2022/10/17 00:15:59;;;;;;;6.72;1.83;;;13.90;99.90;;;;;;5099700;28;20032;-42
2022/10/17 00:18:25;;;;;;;3.58;1.92;;;13.90;99.90;;;;;;5109788;28;20038;-41
2022/10/17 00:20:51;;;;;;;7.60;2.30;;;14.00;99.90;;;;;;5098873;28;20515;-42
2022/10/17 00:23:17;;;;;;;6.25;2.17;;;14.00;99.90;;;;;;5111743;28;20141;-41
2022/10/17 00:25:43;;;;;;;5.10;2.22;;;13.90;99.90;;;;;;5104860;28;20047;-42
2022/10/17 00:28:11;;;;;;;6.20;2.80;;;14.00;99.90;;;;;;5109241;28;20050;-42
2022/10/17 00:30:38;;;;;;;5.80;2.30;;;14.00;99.90;;;;;;5104892;28;20163;-40
2022/10/17 00:33:03;;;;;;;4.90;2.30;;;14.00;99.90;;;;;;5107907;28;20036;-45
2022/10/17 00:35:30;;;;;;;4.60;2.22;;;14.00;99.90;;;;;;5109725;28;20039;-44
2022/10/17 00:37:55;;;;;;;8.35;2.95;;;14.00;99.90;;;;;;5110449;28;20549;-41
2022/10/17 00:40:21;;;;;;;9.13;3.00;;;14.00;99.90;;;;;;5102822;28;20044;-43
2022/10/17 00:42:50;;;;;;;4.65;2.22;;;14.00;99.90;;;;;;5103311;28;20069;-40
2022/10/17 00:45:29;;;;;;;6.38;2.30;;;14.00;99.90;;;;;;5111644;28;20037;-40
2022/10/17 00:48:07;;;;;;;4.22;2.40;;;13.90;99.90;;;;;;5084855;28;20137;-39
2022/10/17 00:50:35;;;;;;;4.07;2.10;;;14.00;99.90;;;;;;5107514;28;20040;-46
2022/10/17 00:53:03;;;;;;;7.90;2.45;;;13.90;99.90;;;;;;5098688;28;20485;-42
2022/10/17 00:55:33;;;;;;;7.05;3.05;;;13.90;99.90;;;;;;5108402;28;20048;-41
2022/10/17 00:58:02;;;;;;;4.15;2.53;;;13.90;99.90;;;;;;5105998;28;20432;-41
2022/10/17 01:00:28;;;;;;;4.43;3.05;;;13.90;99.90;;;;;;5106305;28;20131;-40
2022/10/17 01:02:53;;;;;;;5.82;2.90;;;13.90;99.90;;;;;;5101212;28;20225;-39
2022/10/17 01:05:20;;;;;;;5.35;2.42;;;13.80;99.90;;;;;;5107259;28;20051;-39
2022/10/17 01:07:49;;;;;;;7.10;2.85;;;13.80;99.90;;;;;;5097600;28;20519;-39
2022/10/17 01:10:16;;;;;;;5.40;3.50;;;13.70;99.90;;;;;;5103227;28;20032;-40
2022/10/17 01:12:50;;;;;;;5.68;3.13;;;13.70;99.90;;;;;;5097942;28;20091;-39
2022/10/17 01:15:16;;;;;;;5.03;3.05;;;13.70;99.90;;;;;;5102411;28;20114;-38
2022/10/17 01:18:03;;;;;;;7.05;4.07;;;13.60;99.90;;;;;;5100390;28;20127;-39
2022/10/17 01:20:47;;;;;;;7.63;3.20;;;13.60;99.90;;;;;;5100457;28;20511;-39
2022/10/17 01:23:37;;;;;;;5.30;3.25;;;13.60;99.90;;;;;;5099718;28;20458;-40
2022/10/17 01:26:21;;;;;;;6.07;3.30;;;13.60;99.90;;;;;;5095035;28;20096;-39
2022/10/17 01:28:59;;;;;;;5.43;3.33;;;13.50;99.90;;;;;;5102513;28;20122;-40
2022/10/17 01:31:52;;;;;;;5.60;3.13;;;13.50;99.90;;;;;;5096034;28;20475;-40
2022/10/17 01:34:28;;;;;;;7.78;3.80;;;13.50;99.90;;;;;;5087060;28;20085;-39
2022/10/17 01:37:13;;;;;;;6.15;3.55;;;13.50;99.90;;;;;;5096025;28;20105;-40
2022/10/17 01:39:47;;;;;;;5.82;3.85;;;13.50;99.90;;;;;;5092476;28;20493;-40
2022/10/17 01:42:22;;;;;;;7.43;4.40;;;13.50;99.90;;;;;;5103706;28;20062;-39
2022/10/17 01:44:57;;;;;;;5.05;3.13;;;13.50;99.90;;;;;;5095914;28;20413;-39
2022/10/17 01:47:28;;;;;;;7.72;4.05;;;13.50;99.90;;;;;;5096553;28;20050;-39
2022/10/17 01:49:58;;;;;;;7.80;5.03;;;13.50;99.90;;;;;;5100235;28;20040;-38
2022/10/17 01:52:29;;;;;;;5.78;3.45;;;13.50;99.90;;;;;;5102063;28;20039;-40
2022/10/17 01:55:01;;;;;;;6.68;4.68;;;13.50;99.90;;;;;;5105819;28;20111;-39
2022/10/17 01:57:33;;;;;;;;;;;13.50;99.90;;;;;;5102923;28;20031;-39
2022/10/17 02:00:01;;;;;;;6.35;4.25;;;13.50;99.90;;;;;;5101204;28;19924;-39
2022/10/17 02:02:27;;;;;;;8.00;4.05;;;13.50;99.90;;;;;;5084049;28;20047;-40
2022/10/17 02:04:55;;;;;;;6.45;4.60;;;13.40;99.90;;;;;;5097951;28;20039;-39
2022/10/17 02:07:21;;;;;;;7.15;3.90;;;13.50;99.90;;;;;;5103786;28;20031;-39
2022/10/17 02:09:47;;;;;;;8.88;5.07;;;13.50;99.90;;;;;;5100534;28;20119;-38
2022/10/17 02:12:21;;;;;;;11.30;4.95;;;13.50;99.90;;;;;;5100016;28;20063;-39
2022/10/17 02:15:16;;;;;;;7.93;4.63;;;13.40;99.90;;;;;;5095656;28;20435;-39
2022/10/17 02:17:52;;;;;;;7.40;4.15;;;13.40;99.90;;;;;;5099725;28;20062;-39
2022/10/17 02:20:53;;;;;;;8.60;4.00;;;13.40;99.90;;;;;;5101491;28;20092;-39
2022/10/17 02:23:36;;;;;;;7.50;4.35;;;13.40;99.90;;;;;;5015935;28;20040;-47
2022/10/17 02:26:10;;;;;;;6.50;4.50;;;13.30;99.90;;;;;;5095547;28;20059;-39
2022/10/17 02:28:49;;;;;;;7.97;4.68;;;13.30;99.90;;;;;;5101318;28;20043;-39
2022/10/17 02:31:47;;;;;;;9.15;5.28;;;13.30;99.90;;;;;;5093975;28;20752;-39
2022/10/17 02:34:24;;;;;;;8.48;4.18;;;13.30;99.90;;;;;;5077986;28;20091;-40
2022/10/17 02:36:54;;;;;;;9.13;5.18;;;13.30;99.90;;;;;;5101472;28;20035;-39
2022/10/17 02:39:22;;;;;;;9.30;5.28;;;13.30;99.90;;;;;;5097724;28;20137;-39
2022/10/17 02:41:51;;;;;;;7.00;5.00;;;13.30;99.90;;;;;;5099444;28;20138;-38
2022/10/17 02:44:16;;;;;;;10.77;5.90;;;13.30;99.90;;;;;;5101652;28;20032;-39
2022/10/17 02:46:46;;;;;;;8.93;5.30;;;13.30;99.90;;;;;;5097629;28;20097;-39
2022/10/17 02:49:28;;;;;;;8.20;5.45;;;13.30;99.90;;;;;;5099770;28;20043;-40
2022/10/17 02:52:07;;;;;;;6.63;5.13;;;13.30;99.90;;;;;;5082607;28;20114;-39
2022/10/17 02:54:41;;;;;;;8.95;6.25;;;13.30;99.90;;;;;;5102547;28;20050;-38
2022/10/17 02:57:24;;;;;;;10.20;6.43;;;13.30;99.90;;;;;;5093333;28;20039;-39
2022/10/17 02:59:50;;;;;;;9.75;6.03;;;13.30;99.90;;;;;;5092070;28;20513;-39
2022/10/17 03:02:16;;;;;;;9.82;5.88;;;13.30;99.90;;;;;;5095946;28;20032;-40
2022/10/17 03:04:46;;;;;;;9.38;6.32;;;13.30;99.90;;;;;;5104212;28;21223;-40
2022/10/17 03:07:12;;;;;;;10.82;6.40;;;13.20;99.90;;;;;;5093124;28;20063;-40
2022/10/17 03:09:37;;;;;;;8.32;5.80;;;13.20;99.90;;;;;;5093498;28;20035;-39
2022/10/17 03:12:04;;;;;;;6.85;5.07;;;13.30;99.90;;;;;;5099054;28;20032;-39
2022/10/17 03:14:30;;;;;;;9.85;6.72;;;13.20;99.90;;;;;;5099419;28;20048;-39
2022/10/17 03:16:55;;;;;;;9.32;6.35;;;13.20;99.90;;;;;;5091354;28;21505;-41
2022/10/17 03:19:21;;;;;;;7.82;5.40;;;13.20;99.90;;;;;;5097642;28;20036;-39
2022/10/17 03:21:47;;;;;;;9.68;6.43;;;13.30;99.90;;;;;;5092380;28;20040;-40
2022/10/17 03:24:12;;;;;;;10.32;5.97;;;13.20;99.90;;;;;;5093692;28;20036;-39
2022/10/17 03:26:38;;;;;;;9.70;6.43;;;13.20;99.90;;;;;;5096816;28;20190;-40
2022/10/17 03:29:04;;;;;;;11.13;7.30;;;13.20;99.90;;;;;;5101400;28;20521;-39
2022/10/17 03:31:29;;;;;;;11.13;6.35;;;13.20;99.90;;;;;;5098354;28;20788;-39
2022/10/17 03:33:55;;;;;;;11.05;6.97;;;13.20;99.90;;;;;;5096795;28;20408;-40
2022/10/17 03:36:21;;;;;;;11.57;6.95;;;13.20;99.90;;;;;;5094649;28;20070;-39
2022/10/17 03:38:47;;;;;;;13.68;7.22;;;13.20;99.90;;;;;;5096310;28;20077;-39
2022/10/17 03:41:12;;;;;;;11.57;7.15;;;13.20;99.90;;;;;;5103074;28;20059;-39
2022/10/17 03:43:39;;;;;;;11.13;7.45;;;13.30;99.90;;;;;;5100467;28;20036;-40
2022/10/17 03:46:05;;;;;;;10.80;7.63;;;13.30;99.90;;;;;;5092960;28;20093;-39
2022/10/17 03:48:31;;;;;;;12.30;8.02;;;13.30;99.90;;;;;;5097505;28;20052;-40
2022/10/17 03:51:00;;;;;;;11.25;7.07;;;13.30;99.90;;;;;;5097085;28;20036;-39
2022/10/17 03:53:25;;;;;;;10.57;6.82;;;13.30;99.90;;;;;;5107995;28;20499;-43
2022/10/17 03:55:51;;;;;;;10.18;7.43;;;13.30;99.90;;;;;;5094214;28;20033;-46
2022/10/17 03:58:16;;;;;;;15.38;8.43;;;13.30;99.90;;;;;;5093589;28;20044;-40
2022/10/17 04:00:42;;;;;;;10.57;7.22;;;13.40;99.90;;;;;;5098960;28;20047;-41
2022/10/17 04:03:08;;;;;;;11.10;7.15;;;13.40;99.90;;;;;;5098515;28;20040;-40
2022/10/17 04:05:33;;;;;;;10.35;7.18;;;13.40;99.90;;;;;;5104154;28;20038;-39
2022/10/17 04:07:59;;;;;;;13.32;8.70;;;13.40;99.90;;;;;;5099999;28;20043;-39
2022/10/17 04:10:25;;;;;;;11.05;7.72;;;13.40;99.90;;;;;;5103164;28;20377;-39
2022/10/17 04:12:50;;;;;;;11.02;6.95;;;13.40;99.90;;;;;;5097991;28;20043;-39
2022/10/17 04:15:16;;;;;;;11.07;7.68;;;13.40;99.90;;;;;;5101865;28;20036;-39
2022/10/17 04:17:41;;;;;;;11.02;7.00;;;13.40;99.90;;;;;;5099829;28;20032;-39
2022/10/17 04:20:08;;;;;;;12.25;8.15;;;13.40;99.90;;;;;;5103166;28;20080;-41
2022/10/17 04:22:33;;;;;;;12.10;7.93;;;13.50;99.90;;;;;;5096710;28;20032;-40
2022/10/17 04:24:59;;;;;;;10.82;7.75;;;13.50;99.90;;;;;;5100438;28;20044;-40
2022/10/17 04:27:25;;;;;;;9.07;6.68;;;13.50;99.90;;;;;;5098339;28;20067;-39
2022/10/17 04:29:50;;;;;;;13.55;8.05;;;13.50;99.90;;;;;;5101398;28;20604;-45
2022/10/17 04:32:16;;;;;;;12.00;8.18;;;13.60;99.90;;;;;;5102010;28;20040;-46
2022/10/17 04:34:42;;;;;;;11.55;7.45;;;13.60;99.90;;;;;;5100812;28;20040;-46
2022/10/17 04:37:07;;;;;;;13.23;7.88;;;13.70;99.90;;;;;;5102580;28;20032;-48
2022/10/17 04:39:33;;;;;;;11.25;7.40;;;13.80;99.90;;;;;;5104101;28;20035;-39
2022/10/17 04:41:59;;;;;;;13.85;7.40;;;13.80;99.90;;;;;;5100219;28;20038;-39
2022/10/17 04:44:24;;;;;;;10.80;7.28;;;13.80;99.90;;;;;;5102449;28;20541;-39
2022/10/17 04:46:50;;;;;;;12.02;7.90;;;13.90;99.90;;;;;;5098344;28;20047;-39
2022/10/17 04:49:16;;;;;;;12.18;8.05;;;14.00;99.90;;;;;;5099078;28;20417;-39
2022/10/17 04:51:41;;;;;;;12.25;7.63;;;14.00;99.90;;;;;;5100587;28;20036;-40
2022/10/17 04:54:07;;;;;;;12.00;6.65;;;14.10;99.90;;;;;;5103329;28;20031;-40
2022/10/17 04:56:32;;;;;;;11.77;7.82;;;14.10;99.90;;;;;;5081891;28;20084;-41
2022/10/17 04:58:59;;;;;;;10.45;6.60;;;14.20;99.90;;;;;;5101023;28;20036;-39
2022/10/17 05:01:25;;;;;;;11.80;7.55;;;14.20;99.90;;;;;;5095918;28;20059;-39
2022/10/17 05:03:51;;;;;;;11.02;6.85;;;14.20;99.90;;;;;;5105636;28;20039;-39
2022/10/17 05:06:23;;;;;;;11.73;7.20;;;14.20;99.90;;;;;;5101590;28;20457;-46
2022/10/17 05:08:49;;;;;;;11.82;7.32;;;14.30;99.90;;;;;;5101682;28;20039;-39
2022/10/17 05:11:24;;;;;;;10.35;6.18;;;14.30;99.90;;;;;;5106995;28;20036;-39
2022/10/17 05:13:57;;;;;;;13.57;7.53;;;14.40;99.90;;;;;;5107798;28;20480;-40
2022/10/17 05:16:24;;;;;;;9.82;6.78;;;14.50;99.90;;;;;;5109065;28;20486;-42
2022/10/17 05:18:52;;;;;;;10.57;6.85;;;14.50;99.90;;;;;;5106761;28;20035;-40
2022/10/17 05:21:18;;;;;;;8.88;5.82;;;14.60;99.90;;;;;;5105474;28;20039;-40
2022/10/17 05:23:44;;;;;;;12.18;6.72;;;14.60;99.90;;;;;;5093529;28;20036;-39
2022/10/17 05:26:13;;;;;;;11.65;7.30;;;14.70;99.90;;;;;;5105756;28;20131;-40
2022/10/17 05:28:39;;;;;;;13.48;6.50;;;14.80;99.90;;;;;;5100701;28;20162;-41
2022/10/17 05:31:06;;;;;;;9.38;6.07;;;14.80;99.90;;;;;;5102004;28;20039;-40
2022/10/17 05:33:32;;;;;;;9.52;6.10;;;14.90;99.90;;;;;;5103074;28;20089;-40
2022/10/17 05:35:58;;;;;;;13.27;7.35;;;14.90;99.90;;;;;;5103721;28;20028;-39
2022/10/17 05:38:24;;;;;;;13.30;6.57;;;14.90;99.90;;;;;;5104864;28;20062;-39
2022/10/17 05:40:50;;;;;;;11.20;6.53;;;15.00;99.90;;;;;;5105860;28;20237;-40
2022/10/17 05:43:17;;;;;;;9.57;6.88;;;15.00;99.90;;;;;;5099960;28;20063;-41
2022/10/17 05:45:43;;;;;;;9.57;6.15;;;15.00;99.90;;;;;;5104789;28;20044;-40
2022/10/17 05:48:08;;;;;;;11.30;6.65;;;15.00;99.90;;;;;;5098833;28;20401;-41
2022/10/17 05:50:34;;;;;;;9.70;6.20;;;15.00;99.90;;;;;;5100558;28;20556;-41
2022/10/17 05:53:00;;;;;;;9.52;6.25;;;15.00;99.90;;;;;;5102468;28;20055;-44
2022/10/17 05:55:26;;;;;;;9.50;6.50;;;15.00;99.90;;;;;;5099441;28;20480;-41
2022/10/17 05:57:52;;;;;;;9.55;5.97;;;15.00;99.90;;;;;;5082140;28;20120;-45
2022/10/17 06:00:19;;;;;;;10.98;6.80;;;15.00;99.90;;;;;;5101661;28;20559;-42
2022/10/17 06:02:46;;;;;;;8.70;5.95;;;15.00;99.90;;;;;;5104621;28;20040;-42
2022/10/17 06:05:12;;;;;;;10.10;6.18;;;15.00;99.90;;;;;;5103252;28;20583;-40
2022/10/17 06:07:38;;;;;;;9.25;5.97;;;15.00;99.90;;;;;;5102314;28;20454;-39
2022/10/17 06:10:04;;;;;;;10.73;6.18;;;15.00;99.90;;;;;;5104329;28;20091;-40
2022/10/17 06:12:30;;;;;;;14.30;6.50;;;15.00;99.90;;;;;;5095005;28;20651;-39
2022/10/17 06:14:56;;;;;;;13.73;6.75;;;15.00;99.90;;;;;;5097752;28;20043;-39
2022/10/17 06:17:21;;;;;;;9.02;6.13;;;15.00;99.90;;;;;;5087569;28;20100;-40
2022/10/17 06:19:47;;;;;;;9.43;6.40;;;15.00;99.90;;;;;;5098914;28;20062;-39
2022/10/17 06:22:13;;;;;;;10.43;6.75;;;15.00;99.90;;;;;;5094783;28;20055;-40
2022/10/17 06:24:39;;;;;;;10.88;7.03;;;15.00;99.90;;;;;;5099947;28;20505;-40
2022/10/17 06:27:04;;;;;;;9.65;6.55;;;15.00;99.90;;;;;;5099827;28;20044;-39
2022/10/17 06:29:30;;;;;;;10.15;6.40;;;15.00;99.90;;;;;;5099124;28;20047;-43
2022/10/17 06:31:56;;;;;;;11.65;6.22;;;15.00;99.90;;;;;;5101628;28;20078;-41
2022/10/17 06:34:22;;;;;;;11.57;7.32;;;15.10;99.90;;;;;;5103629;28;20035;-41
2022/10/17 06:36:48;;;;;;;9.80;6.05;;;15.10;99.90;;;;;;5096078;28;20039;-43
2022/10/17 06:39:13;;;;;;;11.35;6.28;;;15.10;99.90;;;;;;5105337;28;20070;-41
2022/10/17 06:41:43;;;;;;;9.55;5.85;;;15.00;99.90;;;;;;5102531;28;20039;-40
2022/10/17 06:44:11;;;;;;;10.95;5.82;;;15.10;99.90;;;;;;5102600;28;20079;-40
2022/10/17 06:46:38;;;;;;;8.80;5.35;;;15.10;99.90;;;;;;5106387;28;20078;-40
2022/10/17 06:49:05;;;;;;;9.35;6.10;;;15.20;99.90;;;;;;5104712;28;20050;-41
2022/10/17 06:51:34;;;;;;;13.70;6.05;;;15.20;99.90;;;;;;5101187;28;20039;-41
2022/10/17 06:54:00;;;;;;;10.65;6.00;;;15.30;99.90;;;;;;5095446;28;20036;-39
2022/10/17 06:56:26;;;;;;;11.43;6.05;;;15.30;99.90;;;;;;5095359;28;20579;-41
2022/10/17 06:58:51;;;;;;;10.85;6.07;;;15.30;99.90;;;;;;5094005;28;20071;-41
2022/10/17 07:01:17;;;;;;;9.63;5.47;;;15.30;99.90;;;;;;5098137;28;20122;-41
2022/10/17 07:03:46;;;;;;;9.52;5.15;;;15.30;99.90;;;;;;5103892;28;20028;-42
2022/10/17 07:06:12;;;;;;;10.40;5.25;;;15.30;99.90;;;;;;5096767;28;20641;-39
2022/10/17 07:08:42;;;;;;;15.32;6.25;;;15.30;99.90;;;;;;5096140;28;20032;-40
2022/10/17 07:11:14;;;;;;;9.30;5.35;;;15.40;99.90;;;;;;5099239;28;20100;-41
2022/10/17 07:13:40;;;;;;;8.75;5.68;;;15.40;99.90;;;;;;5103642;28;20118;-41
2022/10/17 07:16:06;;;;;;;8.48;5.00;;;15.50;99.90;;;;;;5097977;28;20626;-40
2022/10/17 07:18:32;;;;;;;8.98;5.50;;;15.50;99.90;;;;;;5098832;28;20047;-39
2022/10/17 07:20:57;;;;;;;8.82;5.22;;;15.60;99.90;;;;;;5078717;28;20418;-40
2022/10/17 07:23:23;;;;;;;9.35;5.80;;;15.60;99.90;;;;;;5095468;28;20180;-39
2022/10/17 07:25:49;;;;;;;7.88;5.43;;;15.70;99.90;;;;;;5095995;28;20056;-41
2022/10/17 07:28:15;;;;;;;12.02;6.47;;;15.70;99.90;;;;;;5105040;28;20511;-39
2022/10/17 07:30:41;;;;;;;6.80;4.88;;;15.70;99.90;;;;;;5097617;28;20497;-39
2022/10/17 07:33:07;;;;;;;9.07;5.78;;;15.80;99.90;;;;;;5101983;28;20073;-40
2022/10/17 07:35:33;;;;;;;8.90;5.47;;;15.80;99.90;;;;;;5106198;28;20070;-39
2022/10/17 07:37:59;;;;;;;10.88;5.68;;;15.90;99.90;;;;;;5101588;28;20523;-40
2022/10/17 07:40:24;;;;;;;9.02;5.35;;;15.90;99.90;;;;;;5100384;28;20032;-40
2022/10/17 07:42:50;;;;;;;7.00;4.70;;;15.90;99.90;;;;;;5091713;28;20039;-43
2022/10/17 07:45:16;;;;;;;6.47;4.93;;;15.90;99.90;;;;;;5098026;28;20047;-49
2022/10/17 07:47:42;;;;;;;7.40;5.10;;;15.90;99.90;;;;;;5108642;28;20027;-39
2022/10/17 07:50:08;;;;;;;9.00;5.50;;;16.00;99.90;;;;;;5100902;28;20507;-40
2022/10/17 07:52:33;;;;;;;8.18;5.55;;;16.00;99.90;;;;;;5103282;28;20043;-41
2022/10/17 07:54:59;;;;;;;7.47;4.38;;;16.00;99.90;;;;;;5101487;28;20523;-40
2022/10/17 07:57:25;;;;;;;8.32;5.53;;;16.00;99.90;;;;;;5105293;28;20062;-40
2022/10/17 07:59:51;;;;;;;9.82;5.88;;;16.00;99.90;;;;;;5103124;28;20041;-42
2022/10/17 08:02:22;;;;;;;10.45;5.00;;;16.00;99.90;;;;;;5106048;28;20067;-44
2022/10/17 08:04:48;;;;;;;7.53;5.07;;;16.00;99.90;;;;;;5105766;28;20067;-42
2022/10/17 08:07:15;;;;;;;8.63;5.35;;;16.00;99.90;;;;;;5102331;28;20127;-44
2022/10/17 08:09:41;;;;;;;9.20;5.55;;;16.00;99.90;;;;;;5082675;28;20046;-41
2022/10/17 08:12:07;;;;;;;10.68;5.78;;;15.90;99.90;;;;;;5105247;28;20694;-41
2022/10/17 08:14:32;;;;;;;7.13;4.70;;;16.00;99.90;;;;;;5086232;28;20038;-42
2022/10/17 08:16:58;;;;;;;7.68;5.00;;;15.90;99.90;;;;;;5107994;28;20047;-41
2022/10/17 08:19:24;;;;;;;8.38;5.22;;;15.90;99.90;;;;;;5100516;28;20512;-40
2022/10/17 08:21:50;;;;;;;9.82;5.85;;;15.90;99.90;;;;;;5101213;28;20624;-40
2022/10/17 08:24:16;;;;;;;10.85;5.45;;;15.90;99.90;;;;;;5104254;28;20036;-40
2022/10/17 08:26:42;;;;;;;8.50;4.78;;;15.90;99.90;;;;;;5103739;28;20055;-41
2022/10/17 08:29:12;;;;;;;9.85;5.80;;;15.90;99.90;;;;;;5086009;28;20054;-43
2022/10/17 08:31:38;;;;;;;11.13;5.75;;;15.90;99.90;;;;;;5094645;28;20039;-40
2022/10/17 08:34:04;;;;;;;10.02;6.05;;;15.90;99.90;;;;;;5082435;28;20488;-39
2022/10/17 08:36:29;;;;;;;8.30;5.43;;;16.00;99.90;;;;;;5101958;28;20078;-40
2022/10/17 08:38:55;;;;;;;9.93;5.47;;;16.00;99.90;;;;;;5104630;28;20035;-38
2022/10/17 08:41:35;;;;;;;11.50;5.68;;;16.00;99.90;;;;;;5103665;28;20118;-38
2022/10/17 08:44:01;;;;;;;8.43;5.30;;;16.00;99.90;;;;;;5104552;28;20035;-38
2022/10/17 08:46:48;;;;;;;7.47;4.88;;;16.00;99.90;;;;;;5102050;28;20524;-39
2022/10/17 08:49:45;;;;;;;11.07;5.00;;;16.00;99.90;;;;;;5104493;28;20070;-38
2022/10/17 08:52:39;;;;;;;9.80;5.63;;;16.00;99.90;;;;;;5101328;28;20032;-39
2022/10/17 08:55:37;;;;;;;9.57;5.75;;;16.00;99.90;;;;;;5087080;28;20044;-38
2022/10/17 08:58:21;;;;;;;10.77;5.18;;;16.00;99.90;;;;;;5106160;28;20078;-38
2022/10/17 09:01:07;;;;;;;9.80;5.40;;;16.00;99.90;;;;;;5102419;28;20035;-39
2022/10/17 09:03:52;;;;;;;11.50;5.43;;;16.10;99.90;;;;;;5060866;28;20051;-39
2022/10/17 09:06:28;;;;;;;7.32;4.80;;;16.10;99.90;;;;;;5097356;28;20389;-40
2022/10/17 09:09:14;;;;;;;9.48;5.03;;;16.10;99.90;;;;;;5103521;28;20497;-43
2022/10/17 09:11:40;;;;;;;9.70;5.25;;;16.10;99.90;;;;;;5101409;28;20044;-40
2022/10/17 09:14:30;;;;;;;8.25;5.35;;;16.20;99.90;;;;;;5101590;28;20036;-40
2022/10/17 09:17:25;;;;;;;10.13;5.10;;;16.20;99.90;;;;;;5103914;28;20504;-39
2022/10/17 09:20:08;;;;;;;9.80;5.38;;;16.30;99.90;;;;;;5100668;28;20309;-39
2022/10/17 09:22:47;;;;;;;10.75;4.93;;;16.30;99.90;;;;;;5097180;28;20131;-39
2022/10/17 09:25:16;;;;;;;8.73;5.40;;;16.40;99.90;;;;;;5102675;28;20126;-39
2022/10/17 09:28:09;;;;;;;9.55;5.10;;;16.40;99.90;;;;;;5095357;28;20055;-40
2022/10/17 09:30:56;;;;;;;10.98;5.78;;;16.40;99.90;;;;;;5097681;28;20163;-40
2022/10/17 09:33:33;;;;;;;11.68;6.60;;;16.40;99.90;;;;;;5101830;28;20480;-40
2022/10/17 09:36:00;;;;;;;11.23;6.32;;;16.40;99.90;;;;;;5094683;28;20074;-42
2022/10/17 09:38:37;;;;;;;9.98;6.05;;;16.40;99.90;;;;;;5103265;28;20119;-38
2022/10/17 09:41:03;;;;;;;9.45;5.38;;;16.40;99.90;;;;;;5102862;28;20055;-38
2022/10/17 09:43:28;;;;;;;9.27;5.75;;;16.30;99.90;;;;;;5103470;28;20040;-38
2022/10/17 09:46:20;;;;;;;9.98;5.72;;;16.30;99.90;;;;;;5094716;28;20040;-39
2022/10/17 09:48:56;;;;;;;8.57;5.60;;;16.30;99.90;;;;;;5098555;28;20127;-38
2022/10/17 09:51:23;;;;;;;11.55;5.50;;;16.30;99.90;;;;;;5099258;28;20040;-38
2022/10/17 09:54:19;;;;;;;13.30;6.00;;;16.20;99.90;;;;;;5100614;28;20621;-38
2022/10/17 09:57:04;;;;;;;10.13;6.10;;;16.20;99.90;;;;;;5055629;28;20039;-38
2022/10/17 09:59:35;;;;;;;11.02;6.20;;;16.20;99.90;;;;;;5104769;28;20048;-38
2022/10/17 10:02:22;;;;;;;7.72;5.40;;;16.20;99.90;;;;;;5101430;28;20047;-38
2022/10/17 10:04:53;;;;;;;11.93;5.63;;;16.20;99.90;;;;;;5105791;28;20047;-38
2022/10/17 10:07:20;;;;;;;11.68;5.20;;;16.20;99.90;;;;;;5103244;28;20070;-38
2022/10/17 10:09:47;;;;;;;13.13;6.55;;;16.20;99.90;;;;;;5104454;28;20416;-39
2022/10/17 10:12:19;;;;;;;11.32;6.43;;;16.20;99.90;;;;;;5100584;28;20099;-39
2022/10/17 10:14:45;;;;;;;10.80;6.75;;;16.20;99.90;;;;;;5105737;28;20031;-39
2022/10/17 10:17:43;;;;;;;7.85;5.28;;;16.20;99.90;;;;;;5103714;28;20513;-39
2022/10/17 10:20:36;;;;;;;10.52;6.25;;;16.20;99.90;;;;;;5043330;28;20056;-38
2022/10/17 10:23:08;;;;;;;10.75;5.80;;;16.20;99.90;;;;;;5104298;28;20400;-38
2022/10/17 10:25:35;;;;;;;10.88;6.28;;;16.20;99.90;;;;;;5094182;28;20048;-40
2022/10/17 10:28:01;;;;;;;10.35;6.47;;;16.20;99.90;;;;;;5102911;28;20121;-39
2022/10/17 10:30:29;;;;;;;13.15;6.95;;;16.20;99.90;;;;;;5091593;28;20093;-39
2022/10/17 10:32:58;;;;;;;10.00;5.88;;;16.20;99.90;;;;;;5096344;28;20461;-38
2022/10/17 10:35:31;;;;;;;8.63;6.07;;;16.20;99.90;;;;;;5100193;28;20043;-40
2022/10/17 10:37:58;;;;;;;11.90;7.35;;;16.10;99.90;;;;;;5095333;28;20035;-39
2022/10/17 10:40:31;;;;;;;10.70;6.28;;;16.10;99.90;;;;;;5101600;28;20515;-39
2022/10/17 10:42:59;;;;;;;11.30;6.15;;;16.10;99.90;;;;;;5101183;28;20062;-39
2022/10/17 10:45:46;;;;;;;11.88;6.07;;;16.20;99.90;;;;;;5102272;28;20107;-39
2022/10/17 10:48:19;;;;;;;11.18;6.43;;;16.20;99.90;;;;;;5107737;28;20082;-39
2022/10/17 10:50:59;;;;;;;11.68;6.93;;;16.20;99.90;;;;;;5104822;28;20039;-39
2022/10/17 10:53:46;;;;;;;11.43;7.57;;;16.20;99.90;;;;;;5102033;28;20032;-39
2022/10/17 10:56:36;;;;;;;12.38;7.03;;;16.20;99.90;;;;;;5102734;28;20090;-40
2022/10/17 10:59:07;;;;;;;10.70;6.75;;;16.30;99.90;;;;;;5106054;28;20377;-40
2022/10/17 11:02:08;;;;;;;10.47;6.30;;;16.30;99.90;;;;;;5097632;28;20135;-45
2022/10/17 11:04:58;;;;;;;10.30;6.60;;;16.30;99.90;;;;;;5103358;28;20295;-41
2022/10/17 11:07:44;;;;;;;10.55;6.15;;;16.30;99.90;;;;;;5102446;28;20393;-43
2022/10/17 11:10:36;;;;;;;11.32;6.35;;;16.30;99.90;;;;;;5102374;28;20398;-43
2022/10/17 11:13:13;;;;;;;10.50;5.80;;;16.30;99.90;;;;;;5097781;28;20035;-41
2022/10/17 11:15:48;;;;;;;9.38;6.13;;;16.30;99.90;;;;;;5096034;28;20150;-44
2022/10/17 11:18:23;;;;;;;12.80;7.28;;;16.30;99.90;;;;;;5104104;28;20042;-44
2022/10/17 11:21:25;;;;;;;11.60;6.80;;;16.30;99.90;;;;;;5095998;28;20115;-39
2022/10/17 11:24:26;;;;;;;12.02;6.93;;;16.30;99.90;;;;;;5093823;28;20070;-40
2022/10/17 11:27:01;;;;;;;15.27;7.60;;;16.40;99.90;;;;;;5055673;28;20072;-39
2022/10/17 11:29:32;;;;;;;16.27;7.25;;;16.40;99.90;;;;;;5089138;28;20512;-45
2022/10/17 11:32:08;;;;;;;14.25;6.45;;;16.50;99.90;;;;;;5065032;28;20067;-43
2022/10/17 11:34:41;;;;;;;11.20;6.70;;;16.60;99.90;;;;;;5078654;28;20553;-39
2022/10/17 11:37:29;;;;;;;10.13;6.00;;;16.60;99.90;;;;;;5087558;28;20050;-42
2022/10/17 11:40:14;;;;;;;10.77;6.50;;;16.70;99.90;;;;;;5087432;28;20122;-41
2022/10/17 11:42:53;;;;;;;10.13;6.28;;;16.80;99.90;;;;;;5074590;28;20044;-40
2022/10/17 11:45:22;;;;;;;11.60;6.50;;;16.80;99.90;;;;;;5090738;28;20543;-41
2022/10/17 11:48:03;;;;;;;9.60;5.78;;;16.90;99.90;;;;;;5085294;28;20044;-41
2022/10/17 11:50:36;;;;;;;9.43;5.70;;;16.90;99.90;;;;;;5078851;28;20080;-40
2022/10/17 11:53:12;;;;;;;8.75;5.00;;;16.90;99.90;;;;;;5068414;28;20040;-41
2022/10/17 11:55:40;;;;;;;7.15;4.97;;;16.90;99.90;;;;;;5079202;28;20032;-40
2022/10/17 11:58:36;;;;;;;7.47;4.88;;;16.90;99.90;;;;;;5084056;28;20032;-55
2022/10/17 12:01:36;;;;;;;7.13;4.95;;;17.00;99.90;;;;;;5077222;28;20043;-41
2022/10/17 12:04:15;;;;;;;7.07;4.55;;;17.00;99.90;;;;;;5069632;28;20036;-41
2022/10/17 12:07:16;;;;;;;5.80;4.43;;;17.00;99.90;;;;;;5073707;28;20489;-42
2022/10/17 12:09:56;;;;;;;7.63;4.25;;;17.00;99.90;;;;;;5084334;28;20088;-41
2022/10/17 12:12:31;;;;;;;6.43;4.57;;;17.00;99.90;;;;;;5081080;28;20033;-41
2022/10/17 12:15:12;;;;;;;7.10;4.63;;;17.00;99.90;;;;;;5081162;28;20028;-40
2022/10/17 12:17:52;;;;;;;5.95;3.80;;;16.90;99.90;;;;;;5088432;28;20044;-43
2022/10/17 12:20:23;;;;;;;5.13;3.50;;;16.90;99.90;;;;;;5085669;28;20085;-41
2022/10/17 12:23:00;;;;;;;6.70;4.22;;;16.90;99.90;;;;;;5086067;28;20444;-40
2022/10/17 12:25:33;;;;;;;7.72;4.00;;;16.80;99.90;;;;;;5089535;28;20078;-40
2022/10/17 12:28:20;;;;;;;6.25;3.83;;;16.80;99.90;;;;;;5098968;28;20044;-42
2022/10/17 12:30:57;;;;;;;6.20;3.70;;;16.70;99.90;;;;;;5108449;28;20082;-41
2022/10/17 12:33:33;;;;;;;5.95;4.13;;;16.70;99.90;;;;;;5101431;28;20043;-41
2022/10/17 12:36:17;;;;;;;7.47;4.32;;;16.70;99.90;;;;;;5096253;28;20035;-42
2022/10/17 12:38:44;;;;;;;7.22;4.90;;;16.70;99.90;;;;;;5111055;28;20036;-42
2022/10/17 12:41:10;;;;;;;10.25;5.30;;;16.70;99.90;;;;;;5101875;28;20070;-39
2022/10/17 12:43:44;;;;;;;8.68;5.03;;;16.70;99.90;;;;;;5103204;28;20040;-39
2022/10/17 12:46:10;;;;;;;8.15;4.90;;;16.60;99.90;;;;;;5095844;28;20115;-41
2022/10/17 12:48:36;;;;;;;6.35;3.40;;;16.60;99.90;;;;;;5110306;28;20061;-39
2022/10/17 12:51:18;;;;;;;2.78;1.92;;;16.60;99.90;;;;;;5093411;28;20532;-43
2022/10/17 12:54:11;;;;;;;4.60;1.27;;;16.40;99.90;;;;;;5096296;28;20314;-41
2022/10/17 12:56:42;;;;;;;;;;;16.20;99.90;;;;;;5100363;28;20039;-38
2022/10/17 12:59:23;;;;;;;2.58;1.10;;;16.10;99.90;;;;;;5099736;28;19919;-38
2022/10/17 13:01:53;;;;;;;4.45;1.00;;;15.90;99.90;;;;;;5104250;28;20031;-38
2022/10/17 13:04:20;;;;;;;1.85;1.25;;;15.80;99.90;;;;;;5098674;28;20105;-38
2022/10/17 13:06:53;;;;;;;3.00;0.90;;;15.70;99.90;;;;;;5103791;28;20036;-38